createdAt,value
2022-12-18T00:04:35.408Z,-1.37
2022-12-18T00:07:23.081Z,-1.15
2022-12-18T00:10:10.647Z,-1.36
2022-12-18T00:12:58.229Z,-1.35
2022-12-18T00:15:45.868Z,-1.23
2022-12-18T00:18:33.497Z,-1.31
2022-12-18T00:21:21.066Z,-1.37
2022-12-18T00:24:08.777Z,-1.26
2022-12-18T00:26:56.369Z,-1.13
2022-12-18T00:29:43.970Z,-0.86
2022-12-18T00:32:31.550Z,-0.65
2022-12-18T00:35:19.246Z,-0.24
2022-12-18T00:38:06.825Z,-0.37
2022-12-18T00:40:54.421Z,-0.43
2022-12-18T00:43:42.248Z,-0.88
2022-12-18T00:46:29.998Z,-0.30
2022-12-18T00:49:17.551Z,-0.43
2022-12-18T00:52:07.142Z,-0.48
2022-12-18T00:54:54.702Z,-0.68
2022-12-18T00:57:42.426Z,-0.66
2022-12-18T01:00:30.049Z,-0.73
2022-12-18T01:03:17.682Z,-0.16
2022-12-18T01:06:05.267Z,-0.44
2022-12-18T01:08:52.868Z,0.60
2022-12-18T01:11:40.428Z,0.52
2022-12-18T01:14:28.133Z,0.72
2022-12-18T01:17:15.699Z,0.45
2022-12-18T01:20:03.334Z,1.03
2022-12-18T01:22:50.891Z,0.98
2022-12-18T01:25:38.470Z,1.31
2022-12-18T01:28:26.065Z,1.39
2022-12-18T01:31:13.671Z,1.92
2022-12-18T01:34:01.284Z,2.20
2022-12-18T01:36:48.910Z,2.63
2022-12-18T01:39:36.494Z,2.61
2022-12-18T01:42:24.095Z,2.97
2022-12-18T01:45:11.683Z,3.21
2022-12-18T01:47:59.241Z,3.31
2022-12-18T01:50:48.842Z,3.43
2022-12-18T01:53:36.728Z,3.57
2022-12-18T01:56:24.596Z,3.75
2022-12-18T01:59:12.165Z,3.85
2022-12-18T02:01:59.973Z,3.76
2022-12-18T02:04:49.852Z,3.64
2022-12-18T02:07:37.474Z,3.72
2022-12-18T02:10:25.058Z,3.63
2022-12-18T02:13:12.649Z,3.54
2022-12-18T02:16:00.226Z,3.39
2022-12-18T02:18:47.812Z,3.49
2022-12-18T02:21:35.402Z,2.23
2022-12-18T02:24:23.012Z,2.76
2022-12-18T02:27:10.614Z,2.62
2022-12-18T02:29:59.108Z,3.19
2022-12-18T02:32:46.909Z,2.99
2022-12-18T02:35:34.497Z,3.21
2022-12-18T02:38:22.083Z,3.26
2022-12-18T02:41:09.665Z,3.22
2022-12-18T02:43:57.259Z,3.37
2022-12-18T02:46:45.064Z,3.61
2022-12-18T02:49:32.650Z,3.62
2022-12-18T02:52:20.207Z,3.81
2022-12-18T02:55:07.796Z,3.86
2022-12-18T02:57:55.350Z,3.86
2022-12-18T03:00:42.971Z,3.94
2022-12-18T03:03:30.654Z,3.81
2022-12-18T03:06:18.348Z,3.77
2022-12-18T03:09:05.940Z,3.59
2022-12-18T03:11:53.521Z,2.63
2022-12-18T03:14:41.118Z,3.29
2022-12-18T03:17:28.698Z,3.33
2022-12-18T03:20:16.266Z,3.61
2022-12-18T03:23:03.836Z,3.56
2022-12-18T03:25:51.411Z,3.67
2022-12-18T03:28:38.975Z,3.74
2022-12-18T03:31:26.635Z,3.48
2022-12-18T03:34:14.209Z,3.70
2022-12-18T03:37:01.862Z,3.69
2022-12-18T03:39:49.423Z,3.80
2022-12-18T03:42:36.998Z,3.63
2022-12-18T03:45:24.577Z,3.74
2022-12-18T03:48:12.173Z,3.74
2022-12-18T03:50:59.751Z,3.66
2022-12-18T03:53:47.311Z,3.74
2022-12-18T03:56:34.901Z,3.36
2022-12-18T03:59:22.525Z,3.45
2022-12-18T04:02:10.223Z,3.60
2022-12-18T04:04:57.898Z,3.70
2022-12-18T04:07:45.491Z,3.70
2022-12-18T04:10:33.063Z,2.79
2022-12-18T04:13:40.963Z,2.90
2022-12-18T04:16:44.195Z,3.19
2022-12-18T04:19:31.771Z,2.91
2022-12-18T04:22:19.342Z,2.75
2022-12-18T04:25:08.117Z,2.33
2022-12-18T04:27:55.717Z,1.57
2022-12-18T04:30:43.362Z,1.79
2022-12-18T04:33:31.002Z,2.35
2022-12-18T04:36:18.602Z,2.68
2022-12-18T04:39:06.166Z,2.67
2022-12-18T04:41:53.750Z,2.96
2022-12-18T04:44:41.322Z,3.10
2022-12-18T04:47:28.914Z,3.27
2022-12-18T04:50:16.497Z,3.23
2022-12-18T04:53:04.053Z,3.46
2022-12-18T04:55:51.660Z,3.61
2022-12-18T04:58:39.223Z,3.53
2022-12-18T05:01:32.582Z,3.49
2022-12-18T05:04:22.042Z,3.29
2022-12-18T05:07:09.630Z,3.38
2022-12-18T05:09:57.210Z,3.47
2022-12-18T05:12:44.786Z,3.63
2022-12-18T05:15:32.366Z,3.38
2022-12-18T05:18:19.940Z,3.34
2022-12-18T05:21:07.548Z,3.33
2022-12-18T05:23:55.117Z,3.48
2022-12-18T05:26:42.730Z,3.32
2022-12-18T05:29:30.297Z,2.97
2022-12-18T05:32:17.869Z,3.25
2022-12-18T05:35:05.457Z,3.40
2022-12-18T05:37:53.148Z,3.08
2022-12-18T05:40:42.730Z,3.11
2022-12-18T05:43:30.410Z,2.73
2022-12-18T05:46:20.044Z,3.09
2022-12-18T05:49:07.701Z,2.71
2022-12-18T05:51:55.290Z,3.00
2022-12-18T05:54:42.896Z,2.92
2022-12-18T05:57:30.493Z,2.51
2022-12-18T06:00:18.060Z,3.00
2022-12-18T06:03:05.737Z,2.96
2022-12-18T06:05:53.398Z,3.06
2022-12-18T06:08:46.039Z,3.02
2022-12-18T06:11:34.147Z,3.06
2022-12-18T06:14:21.821Z,2.83
2022-12-18T06:17:09.413Z,2.41
2022-12-18T06:19:57.029Z,2.87
2022-12-18T06:22:44.613Z,1.88
2022-12-18T06:25:32.192Z,1.24
2022-12-18T06:28:19.773Z,1.16
2022-12-18T06:31:08.436Z,0.23
2022-12-18T06:33:56.058Z,0.32
2022-12-18T06:36:43.649Z,-0.21
2022-12-18T06:39:31.242Z,-0.17
2022-12-18T06:42:18.930Z,0.02
2022-12-18T06:45:06.538Z,0.22
2022-12-18T06:47:54.246Z,0.21
2022-12-18T06:50:41.837Z,0.27
2022-12-18T06:53:29.503Z,0.80
2022-12-18T06:56:17.080Z,1.45
2022-12-18T06:59:04.686Z,1.82
2022-12-18T07:01:52.432Z,2.12
2022-12-18T07:04:40.160Z,2.18
2022-12-18T07:07:27.736Z,2.08
2022-12-18T07:10:15.314Z,2.11
2022-12-18T07:13:02.866Z,2.24
2022-12-18T07:15:50.493Z,2.66
2022-12-18T07:18:38.085Z,2.61
2022-12-18T07:21:25.702Z,2.71
2022-12-18T07:24:13.270Z,2.97
2022-12-18T07:27:00.884Z,2.93
2022-12-18T07:29:48.477Z,3.07
2022-12-18T07:32:36.065Z,3.25
2022-12-18T07:35:25.310Z,3.22
2022-12-18T07:38:13.105Z,3.32
2022-12-18T07:41:00.735Z,3.24
2022-12-18T07:43:48.311Z,3.48
2022-12-18T07:46:37.895Z,3.54
2022-12-18T07:49:25.460Z,3.66
2022-12-18T07:52:13.046Z,3.52
2022-12-18T07:55:00.625Z,3.49
2022-12-18T07:57:51.269Z,3.84
2022-12-18T08:00:40.184Z,3.54
2022-12-18T08:03:27.799Z,3.53
2022-12-18T08:06:15.405Z,3.62
2022-12-18T08:09:03.030Z,3.73
2022-12-18T08:11:50.646Z,3.41
2022-12-18T08:14:38.229Z,2.95
2022-12-18T08:17:25.811Z,2.75
2022-12-18T08:20:13.437Z,3.14
2022-12-18T08:23:01.039Z,2.71
2022-12-18T08:25:48.663Z,2.65
2022-12-18T08:28:36.273Z,2.85
2022-12-18T08:31:23.916Z,2.85
2022-12-18T08:34:12.159Z,2.63
2022-12-18T08:36:59.730Z,2.76
2022-12-18T08:39:47.336Z,2.72
2022-12-18T08:42:34.914Z,2.68
2022-12-18T08:45:22.508Z,2.17
2022-12-18T08:48:10.205Z,2.36
2022-12-18T08:50:57.788Z,2.57
2022-12-18T08:53:45.396Z,2.45
2022-12-18T08:56:32.949Z,2.77
2022-12-18T08:59:20.790Z,2.65
2022-12-18T09:02:08.537Z,2.85
2022-12-18T09:04:57.714Z,3.00
2022-12-18T09:07:45.495Z,2.78
2022-12-18T09:10:35.644Z,2.29
2022-12-18T09:13:26.407Z,2.16
2022-12-18T09:16:13.993Z,2.51
2022-12-18T09:19:01.578Z,2.68
2022-12-18T09:21:49.185Z,2.75
2022-12-18T09:24:36.743Z,3.04
2022-12-18T09:27:24.315Z,2.80
2022-12-18T09:30:11.893Z,3.13
2022-12-18T09:32:59.698Z,3.28
2022-12-18T09:35:47.943Z,3.38
2022-12-18T09:38:35.734Z,2.81
2022-12-18T09:41:23.306Z,3.13
2022-12-18T09:44:10.922Z,3.01
2022-12-18T09:46:58.505Z,3.53
2022-12-18T09:49:46.182Z,3.61
2022-12-18T09:52:35.759Z,3.76
2022-12-18T09:55:23.467Z,3.33
2022-12-18T09:58:11.036Z,2.96
2022-12-18T10:00:58.621Z,3.08
2022-12-18T10:03:46.228Z,3.58
2022-12-18T10:06:33.808Z,3.51
2022-12-18T10:09:21.361Z,3.70
2022-12-18T10:11:56.654Z,3.84
2022-12-18T10:14:24.076Z,3.71
2022-12-18T10:43:19.875Z,4.19
2022-12-18T10:46:06.027Z,4.43
2022-12-18T10:48:53.661Z,3.66
2022-12-18T10:51:41.238Z,4.35
2022-12-18T10:54:28.812Z,4.64
2022-12-18T10:57:16.391Z,4.59
2022-12-18T11:00:03.957Z,4.88
2022-12-18T11:02:51.668Z,4.50
2022-12-18T11:05:39.374Z,2.43
2022-12-18T11:08:26.982Z,1.78
2022-12-18T11:11:14.552Z,1.24
2022-12-18T11:14:02.154Z,1.53
2022-12-18T11:17:23.766Z,1.90
2022-12-18T11:19:57.255Z,1.91
2022-12-18T11:22:44.850Z,1.80
2022-12-18T11:25:34.492Z,1.43
2022-12-18T11:28:23.161Z,1.12
2022-12-18T11:31:10.886Z,0.97
2022-12-18T11:34:27.448Z,0.95
2022-12-18T11:37:06.035Z,0.79
2022-12-18T11:39:53.626Z,0.70
2022-12-18T11:42:41.189Z,0.94
2022-12-18T11:45:28.762Z,1.46
2022-12-18T11:48:16.399Z,1.87
2022-12-18T11:51:03.960Z,2.75
2022-12-18T11:53:51.561Z,3.11
2022-12-18T11:56:39.185Z,3.62
2022-12-18T11:59:26.757Z,4.03
2022-12-18T12:02:14.387Z,3.25
2022-12-18T12:05:02.082Z,2.39
2022-12-18T12:07:49.685Z,1.92
2022-12-18T12:10:37.249Z,1.92
2022-12-18T12:13:24.854Z,2.23
2022-12-18T12:16:12.455Z,1.23
2022-12-18T12:19:00.344Z,1.06
2022-12-18T12:21:47.920Z,1.21
2022-12-18T12:24:35.519Z,0.83
2022-12-18T12:27:23.130Z,1.38
2022-12-18T12:30:10.723Z,1.12
2022-12-18T12:32:58.284Z,1.53
2022-12-18T12:35:45.871Z,1.50
2022-12-18T12:38:33.471Z,1.03
2022-12-18T12:41:21.055Z,0.95
2022-12-18T12:44:08.599Z,1.12
2022-12-18T12:46:56.544Z,1.00
2022-12-18T12:49:44.109Z,1.14
2022-12-18T12:52:33.854Z,1.08
2022-12-18T12:55:21.482Z,1.26
2022-12-18T12:58:10.150Z,1.72
2022-12-18T13:00:59.088Z,2.12
2022-12-18T13:03:47.467Z,1.82
2022-12-18T13:06:36.905Z,1.76
2022-12-18T13:09:26.867Z,2.92
2022-12-18T13:12:14.443Z,2.62
2022-12-18T13:15:02.093Z,3.41
2022-12-18T13:17:49.688Z,3.55
2022-12-18T13:20:37.279Z,4.03
2022-12-18T13:23:24.878Z,4.69
2022-12-18T13:26:12.462Z,5.06
2022-12-18T13:29:00.085Z,5.49
2022-12-18T13:31:48.057Z,5.80
2022-12-18T13:34:36.297Z,5.89
2022-12-18T13:37:24.279Z,6.38
2022-12-18T13:40:11.892Z,6.67
2022-12-18T13:42:59.495Z,6.78
2022-12-18T13:45:47.562Z,6.99
2022-12-18T13:48:35.375Z,7.05
2022-12-18T13:51:23.077Z,7.24
2022-12-18T13:54:10.655Z,5.49
2022-12-18T13:56:58.260Z,5.06
2022-12-18T13:59:45.959Z,4.82
2022-12-18T14:02:34.324Z,4.28
2022-12-18T14:05:22.015Z,3.78
2022-12-18T14:08:09.632Z,3.69
2022-12-18T14:10:57.226Z,3.71
2022-12-18T14:13:44.825Z,3.35
2022-12-18T14:16:32.522Z,2.97
2022-12-18T14:19:20.540Z,2.58
2022-12-18T14:22:08.122Z,2.51
2022-12-18T14:24:55.736Z,2.47
2022-12-18T14:27:43.340Z,2.59
2022-12-18T14:30:30.970Z,2.63
2022-12-18T14:33:18.563Z,2.47
2022-12-18T14:36:06.190Z,2.23
2022-12-18T14:38:53.785Z,2.05
2022-12-18T14:41:41.384Z,2.05
2022-12-18T14:44:39.114Z,2.14
2022-12-18T14:47:36.544Z,1.92
2022-12-18T14:50:24.123Z,2.43
2022-12-18T14:53:11.709Z,2.76
2022-12-18T14:55:59.326Z,2.64
2022-12-18T14:58:47.170Z,3.05
2022-12-18T15:01:34.832Z,2.39
2022-12-18T15:04:22.519Z,2.61
2022-12-18T15:07:10.100Z,2.83
2022-12-18T15:09:57.888Z,3.79
2022-12-18T15:12:45.467Z,4.20
2022-12-18T15:15:33.067Z,4.49
2022-12-18T15:18:20.641Z,4.58
2022-12-18T15:21:08.247Z,4.60
2022-12-18T15:23:55.814Z,4.12
2022-12-18T15:26:43.410Z,4.04
2022-12-18T15:29:30.994Z,4.57
2022-12-18T15:32:18.589Z,4.88
2022-12-18T15:35:06.169Z,5.04
2022-12-18T15:37:53.759Z,5.33
2022-12-18T15:40:41.326Z,5.55
2022-12-18T15:43:29.002Z,5.73
2022-12-18T15:46:16.616Z,5.70
2022-12-18T15:49:04.253Z,5.52
2022-12-18T15:51:51.844Z,5.64
2022-12-18T15:54:39.478Z,5.81
2022-12-18T15:57:27.038Z,5.92
2022-12-18T16:00:14.740Z,5.98
2022-12-18T16:03:02.494Z,5.73
2022-12-18T16:05:50.176Z,4.92
2022-12-18T16:08:37.776Z,5.48
2022-12-18T16:11:27.086Z,5.78
2022-12-18T16:14:14.688Z,5.35
2022-12-18T16:17:02.269Z,5.56
2022-12-18T16:19:49.848Z,5.38
2022-12-18T16:22:37.434Z,5.33
2022-12-18T16:25:25.007Z,5.56
2022-12-18T16:28:12.609Z,5.82
2022-12-18T16:31:00.228Z,5.81
2022-12-18T16:33:47.800Z,6.09
2022-12-18T16:36:35.387Z,6.21
2022-12-18T16:39:22.985Z,6.26
2022-12-18T16:42:11.812Z,5.66
2022-12-18T16:44:59.379Z,5.92
2022-12-18T16:47:46.981Z,5.68
2022-12-18T16:50:34.553Z,5.42
2022-12-18T16:53:22.117Z,5.42
2022-12-18T16:56:09.695Z,5.27
2022-12-18T16:58:57.294Z,5.62
2022-12-18T17:01:44.974Z,5.88
2022-12-18T17:04:32.682Z,6.22
2022-12-18T17:07:20.293Z,6.14
2022-12-18T17:10:07.875Z,5.92
2022-12-18T17:12:55.746Z,5.64
2022-12-18T17:15:43.387Z,5.42
2022-12-18T17:18:31.002Z,5.32
2022-12-18T17:21:18.587Z,5.31
2022-12-18T17:24:06.177Z,4.77
2022-12-18T17:26:53.774Z,4.87
2022-12-18T17:29:47.159Z,3.79
2022-12-18T17:32:36.202Z,3.55
2022-12-18T17:35:23.811Z,3.34
2022-12-18T17:38:11.397Z,3.57
2022-12-18T17:40:58.963Z,2.08
2022-12-18T17:43:46.539Z,1.83
2022-12-18T17:46:34.204Z,2.48
2022-12-18T17:49:21.877Z,3.49
2022-12-18T17:52:09.491Z,3.95
2022-12-18T17:54:57.098Z,4.05
2022-12-18T17:57:44.693Z,4.60
2022-12-18T18:00:32.277Z,4.51
2022-12-18T18:03:20.063Z,4.44
2022-12-18T18:06:07.786Z,4.13
2022-12-18T18:08:56.441Z,2.87
2022-12-18T18:11:44.129Z,3.19
2022-12-18T18:14:31.708Z,3.88
2022-12-18T18:17:19.289Z,4.43
2022-12-18T18:20:06.878Z,4.76
2022-12-18T18:22:54.519Z,5.07
2022-12-18T18:25:42.107Z,4.77
2022-12-18T18:28:29.763Z,4.86
2022-12-18T18:31:17.502Z,5.44
2022-12-18T18:34:05.286Z,5.02
2022-12-18T18:36:52.877Z,5.21
2022-12-18T18:39:40.483Z,5.04
2022-12-18T18:42:28.071Z,5.34
2022-12-18T18:45:15.657Z,5.46
2022-12-18T18:48:03.240Z,5.55
2022-12-18T18:50:50.822Z,5.49
2022-12-18T18:53:40.685Z,5.42
2022-12-18T18:59:36.075Z,5.77
2022-12-18T19:02:23.756Z,5.96
2022-12-18T19:05:11.438Z,6.05
2022-12-18T19:07:59.026Z,5.90
2022-12-18T19:10:46.646Z,5.92
2022-12-18T19:13:34.270Z,5.92
2022-12-18T19:16:21.965Z,5.94
2022-12-18T19:19:11.698Z,6.07
2022-12-18T19:21:59.437Z,4.97
2022-12-18T19:24:47.018Z,4.83
2022-12-18T19:27:34.656Z,4.32
2022-12-18T19:30:22.225Z,3.37
2022-12-18T19:33:34.525Z,3.31
2022-12-18T19:36:17.453Z,3.18
2022-12-18T19:39:05.252Z,3.40
2022-12-18T19:41:53.001Z,3.90
2022-12-18T19:44:41.842Z,4.54
2022-12-18T19:47:29.390Z,4.91
2022-12-18T19:50:16.991Z,5.02
2022-12-18T19:53:04.642Z,5.31
2022-12-18T19:55:54.540Z,5.44
2022-12-18T19:58:42.491Z,5.65
2022-12-18T20:01:30.420Z,5.84
2022-12-18T20:04:18.193Z,5.86
2022-12-18T20:07:05.795Z,5.63
2022-12-18T20:10:02.613Z,5.34
2022-12-18T20:12:53.065Z,5.57
2022-12-18T20:15:45.249Z,5.66
2022-12-18T20:18:33.183Z,5.78
2022-12-18T20:21:20.893Z,5.63
2022-12-18T20:24:08.497Z,5.84
2022-12-18T20:26:56.146Z,5.34
2022-12-18T20:29:43.737Z,5.31
2022-12-18T20:32:36.784Z,5.17
2022-12-18T20:35:24.754Z,5.29
2022-12-18T20:38:13.046Z,5.21
2022-12-18T20:41:01.014Z,5.41
2022-12-18T20:43:48.574Z,5.56
2022-12-18T20:46:36.147Z,5.41
2022-12-18T20:49:23.696Z,5.10
2022-12-18T20:52:11.288Z,5.36
2022-12-18T20:54:58.861Z,5.93
2022-12-18T20:57:48.213Z,6.08
2022-12-18T21:00:35.777Z,5.80
2022-12-18T21:03:23.392Z,5.40
2022-12-18T21:06:11.007Z,5.62
2022-12-18T21:08:58.554Z,5.72
2022-12-18T21:11:46.124Z,5.35
2022-12-18T21:14:35.698Z,5.19
2022-12-18T21:17:23.270Z,5.53
2022-12-18T21:20:10.938Z,5.60
2022-12-18T21:23:13.200Z,6.00
2022-12-18T21:26:04.374Z,6.05
2022-12-18T21:28:51.925Z,6.13
2022-12-18T21:31:39.834Z,6.44
2022-12-18T21:34:27.390Z,6.02
2022-12-18T21:37:14.942Z,5.86
2022-12-18T21:40:02.505Z,5.35
2022-12-18T21:42:50.077Z,5.79
2022-12-18T21:45:37.655Z,5.57
2022-12-18T21:48:25.210Z,5.28
2022-12-18T21:51:12.763Z,5.16
2022-12-18T21:54:00.309Z,5.35
2022-12-18T21:56:49.866Z,5.20
2022-12-18T21:59:37.414Z,5.33
2022-12-18T22:02:25.216Z,5.35
2022-12-18T22:05:12.910Z,5.66
2022-12-18T22:08:00.983Z,5.10
2022-12-18T22:10:48.548Z,5.59
2022-12-18T22:13:36.138Z,5.45
2022-12-18T22:16:23.730Z,5.20
2022-12-18T22:19:11.337Z,5.55
2022-12-18T22:21:58.961Z,5.98
2022-12-18T22:24:46.535Z,5.58
2022-12-18T22:27:34.074Z,4.23
2022-12-18T22:30:21.654Z,4.41
2022-12-18T22:33:09.258Z,3.34
2022-12-18T22:35:56.861Z,3.26
2022-12-18T22:38:44.425Z,3.82
2022-12-18T22:41:32.003Z,4.41
2022-12-18T22:44:20.372Z,4.62
2022-12-18T22:47:07.977Z,5.12
2022-12-18T22:49:55.597Z,5.29
2022-12-18T22:52:43.181Z,5.50
2022-12-18T22:55:32.757Z,5.77
2022-12-18T22:58:20.337Z,6.05
2022-12-18T23:01:07.972Z,6.30
2022-12-18T23:03:55.634Z,6.50
2022-12-18T23:06:43.265Z,6.45
2022-12-18T23:09:30.865Z,6.14
2022-12-18T23:12:18.427Z,5.00
2022-12-18T23:15:06.083Z,5.67
2022-12-18T23:17:53.672Z,5.41
2022-12-18T23:20:41.256Z,5.64
2022-12-18T23:23:29.203Z,5.54
2022-12-18T23:26:16.766Z,5.01
2022-12-18T23:29:04.346Z,5.19
2022-12-18T23:31:51.947Z,5.53
2022-12-18T23:34:39.590Z,5.28
2022-12-18T23:37:57.121Z,5.31
2022-12-18T23:40:34.655Z,5.12
2022-12-18T23:43:22.297Z,5.43
2022-12-18T23:46:09.936Z,5.44
2022-12-18T23:48:57.535Z,4.92
2022-12-18T23:51:45.163Z,5.07
2022-12-18T23:54:33.740Z,4.69
2022-12-18T23:57:21.403Z,4.89
